Pagrindinis puslapis
METAR-TAF:

METAR-TAF

Oro uostai :

Kotzebue, Aliaska, Jungtinės Amerikos Valstijos

platuma: 66-53-04N, ilguma: 162-35-54W, Aukštis: 3 m

Dabartinis oras

Ataskaita buvo paskelbta 24 minutes, ne 06:53 UTC
Ramus vėjas
Temperatūra -29°C
Drėgmė 75%
Slėgis 1019 hPa
Matomumas: 16.1 km
Giedras dangus

METAR: PAOT 280653Z 00000KT 10SM CLR M29/M32 A3009 RMK AO2 SLP189 T12941322 $

Laikas: 22:17 (07:17 UTC)

Prognozė

Ataskaita buvo paskelbta 1 valandą ir 50 minutes, ne 05:27 UTC
Prognozė galioja nuo 28 metu 06 UTC su 29 metu 06 UTC
Vėjas 4 kt nuo kintamojo kryptimis
Matomumas: 10 km
Giedras dangus
Nuo 28 metu 1800 UTC
Vėjas 7 kt iš Rytų/Pietryčių
Matomumas: 10 km
Su prošvaistėmis ne aukštis 8000 ft
Nuo 29 metu 0300 UTC
Vėjas 14 kt iš Rytų/Pietryčių
Matomumas: 10 km
Su prošvaistėmis ne aukštis 6000 ft

TAF: PAOT 280527Z 2806/2906 VRB04KT P6SM SKC FM281800 11007KT P6SM BKN080 FM290300 12014KT P6SM BKN060

Orai ataskaitas ir orų prognozės (METAR, TAF).

turimą stotys yra geltonos ir raudonos taškus žemėlapyje.

Perkelti pele per norėdami pamatyti stoties vardą.

Tada spustelėkite, norėdami matyti oro stebėjimo ir prognozės.

Norėdami pakeisti žemėlapį: spustelėkite ant žalios mygtukų su juodo kryžiaus žemyn,; žalią mygtuką su brūkšneliu, jei norite nutolinti; arba žalių rodyklių gretimoms žemėlapius.


METAR-TAF: